Time;durP1;ratioP1;P1;durP2;ratioP2;P2;SDS_P1;SDS_P2;PMS_P1;PMS_P2;Temp;Humidity;BMP_temperature;BMP_pressure;BME280_temperature;BME280_humidity;BME280_pressure;Samples;Min_cycle;Max_cycle;Signal;HPM_P1;HPM_P2
2024/01/14 00:00:44;;;;;;;8.73;2.50;;;7.10;95.80;;;8.63;67.35;100886.84;3082501;46;20455;-68
2024/01/14 00:03:13;;;;;;;11.90;2.87;;;7.00;95.80;;;8.60;67.21;100886.38;3082711;46;20428;-68
2024/01/14 00:05:42;;;;;;;5.83;2.30;;;7.00;95.70;;;8.54;67.10;100881.72;3082444;46;21048;-68
2024/01/14 00:08:10;;;;;;;6.30;3.13;;;6.90;95.50;;;8.45;67.09;100873.00;3081727;46;21020;-68
2024/01/14 00:10:38;;;;;;;5.93;3.33;;;6.90;95.50;;;8.39;67.15;100863.13;3082071;46;21063;-68
2024/01/14 00:13:07;;;;;;;8.07;3.43;;;6.80;95.30;;;8.33;67.09;100858.53;3082067;46;20534;-68
2024/01/14 00:15:35;;;;;;;8.47;2.90;;;6.80;95.50;;;8.29;66.89;100857.22;3082128;46;20557;-68
2024/01/14 00:18:04;;;;;;;5.73;2.23;;;6.70;95.40;;;8.26;67.18;100856.66;3081806;46;21099;-68
2024/01/14 00:20:32;;;;;;;3.47;1.37;;;6.70;95.80;;;8.20;66.88;100845.81;3081997;46;20983;-68
2024/01/14 00:23:01;;;;;;;5.23;1.20;;;6.70;95.60;;;8.16;66.86;100857.59;3082290;46;20591;-68
2024/01/14 00:25:30;;;;;;;4.33;1.30;;;6.60;95.50;;;8.11;66.85;100849.38;3082443;46;20513;-68
2024/01/14 00:27:58;;;;;;;7.03;1.27;;;6.60;95.40;;;8.07;66.95;100861.16;3081320;46;20473;-67
2024/01/14 00:30:26;;;;;;;6.50;1.27;;;6.50;95.50;;;8.02;67.00;100855.56;3081517;46;20569;-68
2024/01/14 00:32:55;;;;;;;5.00;1.50;;;6.50;95.40;;;8.00;66.89;100854.91;3081979;46;20979;-68
2024/01/14 00:35:23;;;;;;;3.37;1.00;;;6.50;95.80;;;7.99;67.19;100849.78;3082126;46;20427;-68
2024/01/14 00:37:52;;;;;;;7.47;2.00;;;6.40;95.50;;;7.97;66.93;100841.28;3081453;46;20523;-68
2024/01/14 00:40:21;;;;;;;3.47;1.00;;;6.40;95.50;;;7.97;67.43;100849.13;3081819;46;21098;-68
2024/01/14 00:42:49;;;;;;;3.27;1.07;;;6.40;95.70;;;7.98;67.11;100843.75;3081383;46;20570;-68
2024/01/14 00:45:17;;;;;;;4.37;1.10;;;6.40;95.80;;;8.00;67.30;100836.56;3081965;46;21118;-68
2024/01/14 00:47:46;;;;;;;3.90;1.23;;;6.40;95.80;;;8.02;67.25;100839.84;3081471;46;20443;-70
2024/01/14 00:50:14;;;;;;;3.90;1.17;;;6.40;95.80;;;8.02;67.08;100839.84;3081451;46;20447;-67
2024/01/14 00:52:42;;;;;;;3.00;1.07;;;6.40;95.90;;;8.03;67.15;100841.47;3081963;46;20428;-68
2024/01/14 00:55:11;;;;;;;2.33;0.80;;;6.40;95.90;;;8.05;67.32;100839.53;3081968;46;20427;-68
2024/01/14 00:57:40;;;;;;;2.47;1.10;;;6.40;96.00;;;8.07;67.38;100836.75;3081496;46;20472;-68
2024/01/14 01:00:09;;;;;;;3.40;1.10;;;6.40;96.00;;;8.08;67.37;100839.19;3081887;46;20577;-68
2024/01/14 01:02:37;;;;;;;3.23;0.60;;;6.40;96.00;;;8.09;67.32;100833.00;3082036;46;20427;-68
2024/01/14 01:05:06;;;;;;;1.30;0.70;;;6.40;96.00;;;8.10;67.18;100837.28;3082043;46;20452;-68
2024/01/14 01:07:34;;;;;;;3.93;1.33;;;6.40;96.00;;;8.09;67.34;100830.38;3081395;46;20538;-68
2024/01/14 01:10:05;;;;;;;4.93;0.93;;;6.50;96.00;;;8.06;67.04;100825.44;3081472;46;20509;-68
2024/01/14 01:12:34;;;;;;;2.33;0.90;;;6.50;96.00;;;8.04;67.00;100819.53;3081501;46;21110;-67
2024/01/14 01:15:07;;;;;;;3.83;1.00;;;6.40;95.90;;;8.00;67.30;100807.72;3081717;46;20561;-68
2024/01/14 01:17:36;;;;;;;3.30;1.40;;;6.40;95.90;;;7.99;67.36;100819.16;3081263;46;20584;-68
2024/01/14 01:20:08;;;;;;;5.47;0.97;;;6.40;95.90;;;8.00;67.19;100812.97;3081760;46;20487;-68
2024/01/14 01:22:36;;;;;;;1.03;0.93;;;6.40;95.90;;;8.01;67.39;100806.72;3081818;46;20511;-67
2024/01/14 01:25:05;;;;;;;2.73;1.03;;;6.40;96.00;;;8.00;67.49;100807.72;3081873;46;20503;-68
2024/01/14 01:27:33;;;;;;;2.80;0.73;;;6.40;96.00;;;8.02;67.56;100797.06;3081371;46;21119;-68
2024/01/14 01:30:03;;;;;;;3.83;1.10;;;6.40;96.00;;;8.04;67.49;100800.34;3081689;46;20449;-68
2024/01/14 01:32:32;;;;;;;3.77;0.90;;;6.40;96.10;;;8.06;67.58;100799.22;3081712;46;20518;-68
2024/01/14 01:35:00;;;;;;;4.60;1.40;;;6.40;96.10;;;8.08;67.40;100796.47;3081351;46;20518;-68
2024/01/14 01:37:29;;;;;;;3.03;0.93;;;6.40;96.10;;;8.10;67.56;100794.50;3081276;46;20582;-68
2024/01/14 01:39:58;;;;;;;2.70;1.20;;;6.40;96.10;;;8.10;67.39;100795.34;3081470;46;20454;-68
2024/01/14 01:42:26;;;;;;;2.10;0.83;;;6.40;96.10;;;8.13;67.60;100789.75;3081340;46;20556;-70
2024/01/14 01:44:54;;;;;;;2.70;1.33;;;6.50;96.20;;;8.15;67.56;100793.03;3081648;46;21041;-68
2024/01/14 01:47:23;;;;;;;3.03;1.40;;;6.40;96.20;;;8.17;67.37;100787.66;3081120;46;20439;-68
2024/01/14 01:49:52;;;;;;;3.37;1.30;;;6.50;96.20;;;8.16;67.26;100783.38;3080469;46;20670;-68
2024/01/14 01:52:21;;;;;;;5.10;1.73;;;6.50;96.20;;;8.18;67.32;100790.09;3081328;46;20434;-67
2024/01/14 01:54:51;;;;;;;4.27;1.60;;;6.50;96.20;;;8.19;67.25;100797.00;3081148;46;20460;-67
2024/01/14 01:57:22;;;;;;;3.30;1.60;;;6.50;96.30;;;8.20;67.51;100798.63;3081089;46;20463;-67
2024/01/14 01:59:51;;;;;;;3.77;1.57;;;6.50;96.30;;;8.19;67.53;100789.13;3080767;46;20439;-68
2024/01/14 02:02:21;;;;;;;5.43;1.23;;;6.50;96.30;;;8.20;67.35;100787.34;3081172;46;20428;-68
2024/01/14 02:04:50;;;;;;;5.63;1.63;;;6.50;96.30;;;8.18;67.28;100782.25;3081114;46;20432;-68
2024/01/14 02:07:20;;;;;;;4.17;1.47;;;6.50;96.30;;;8.17;67.31;100772.75;3080631;46;20461;-67
2024/01/14 02:09:48;;;;;;;5.40;1.03;;;6.50;96.40;;;8.14;67.65;100770.44;3081928;46;20482;-68
2024/01/14 02:12:16;;;;;;;6.43;1.90;;;6.50;96.40;;;8.13;67.56;100778.44;3081130;46;20542;-68
2024/01/14 02:14:45;;;;;;;5.37;1.83;;;6.50;96.40;;;8.11;67.80;100781.22;3081223;46;20431;-68
2024/01/14 02:17:15;;;;;;;5.30;2.10;;;6.50;96.40;;;8.10;67.74;100769.13;3080966;46;20439;-68
2024/01/14 02:19:43;;;;;;;5.53;1.60;;;6.50;96.50;;;8.08;67.79;100770.25;3081126;46;20428;-68
2024/01/14 02:22:19;;;;;;;6.77;1.63;;;6.50;96.50;;;8.05;67.93;100771.38;3081278;46;20466;-68
2024/01/14 02:24:47;;;;;;;10.03;2.13;;;6.40;96.40;;;8.07;68.15;100771.22;3081070;46;20432;-68
2024/01/14 02:27:16;;;;;;;7.43;1.83;;;6.50;96.60;;;8.06;68.05;100773.00;3080647;46;20531;-68
2024/01/14 02:29:46;;;;;;;8.53;2.00;;;6.40;96.50;;;8.08;67.91;100771.06;3080723;46;20428;-68
2024/01/14 02:32:15;;;;;;;3.67;1.70;;;6.40;96.60;;;8.10;68.08;100765.66;3080165;46;20493;-68
2024/01/14 02:34:44;;;;;;;3.50;1.60;;;6.40;96.70;;;8.10;68.19;100769.13;3080598;46;21124;-68
2024/01/14 02:37:12;;;;;;;7.87;2.40;;;6.40;96.70;;;8.11;68.04;100780.41;3080562;46;20468;-68
2024/01/14 02:39:40;;;;;;;4.70;1.83;;;6.40;96.70;;;8.13;68.43;100757.47;3081155;46;21104;-67
2024/01/14 02:42:09;;;;;;;5.77;1.50;;;6.40;96.70;;;8.14;68.23;100761.75;3080898;46;20557;-67
2024/01/14 02:44:38;;;;;;;7.87;2.23;;;6.40;96.60;;;8.15;68.22;100755.53;3081070;46;20428;-68
2024/01/14 02:47:06;;;;;;;9.23;1.87;;;6.40;96.60;;;8.15;67.90;100758.97;3080568;46;20443;-68
2024/01/14 02:49:34;;;;;;;8.47;2.00;;;6.40;96.50;;;8.18;68.16;100755.19;3080691;46;20508;-67
2024/01/14 02:52:03;;;;;;;11.33;2.13;;;6.50;96.60;;;8.20;68.11;100754.06;3081293;46;20542;-69
2024/01/14 02:54:31;;;;;;;7.90;2.00;;;6.50;96.60;;;8.24;68.30;100748.50;3083158;46;20620;-68
2024/01/14 02:57:00;;;;;;;7.13;3.07;;;6.50;96.60;;;8.24;68.09;100754.59;3083096;46;20454;-68
2024/01/14 02:59:29;;;;;;;5.50;2.13;;;6.50;96.50;;;8.25;67.89;100766.69;3083283;46;20988;-69
2024/01/14 03:01:58;;;;;;;6.33;1.93;;;6.50;96.50;;;8.23;67.66;100741.63;3083296;46;20581;-68
2024/01/14 03:04:27;;;;;;;8.00;2.10;;;6.60;96.50;;;8.23;67.74;100752.09;3083340;46;20428;-66
2024/01/14 03:06:55;;;;;;;8.97;2.57;;;6.50;96.30;;;8.18;67.80;100750.78;3082773;46;20452;-68
2024/01/14 03:09:24;;;;;;;6.33;2.63;;;6.50;96.10;;;8.15;67.69;100751.09;3083064;46;20497;-68
2024/01/14 03:11:52;;;;;;;8.10;2.43;;;6.50;95.90;;;8.13;67.46;100752.22;3082979;46;20428;-68
2024/01/14 03:14:21;;;;;;;8.63;2.33;;;6.50;95.70;;;8.11;67.37;100752.41;3082968;46;20422;-68
2024/01/14 03:16:49;;;;;;;5.30;2.00;;;6.50;95.60;;;8.09;67.34;100745.66;3082732;46;20545;-68
2024/01/14 03:19:18;;;;;;;6.83;2.03;;;6.50;95.40;;;8.03;67.20;100744.50;3083193;46;20427;-68
2024/01/14 03:21:46;;;;;;;5.90;1.70;;;6.40;95.30;;;7.94;66.86;100740.19;3082912;46;20456;-68
2024/01/14 03:24:14;;;;;;;10.83;2.07;;;6.40;95.10;;;7.86;66.84;100747.22;3083082;46;20438;-67
2024/01/14 03:26:43;;;;;;;5.93;1.93;;;6.40;95.10;;;7.78;66.94;100748.00;3082647;46;20454;-68
2024/01/14 03:29:11;;;;;;;4.47;1.50;;;6.30;95.00;;;7.71;66.89;100738.28;3082815;46;20505;-68
2024/01/14 03:31:40;;;;;;;5.30;2.00;;;6.30;95.10;;;7.65;67.12;100736.31;3083037;46;20477;-68
2024/01/14 03:34:08;;;;;;;10.07;2.77;;;6.20;95.10;;;7.63;67.12;100733.81;3081951;46;20463;-69
2024/01/14 03:36:37;;;;;;;8.07;2.10;;;6.20;95.20;;;7.62;66.97;100737.44;3082250;46;20428;-68
2024/01/14 03:39:06;;;;;;;7.33;2.00;;;6.10;95.30;;;7.61;67.17;100741.03;3082451;46;20561;-69
2024/01/14 03:41:35;;;;;;;6.50;1.50;;;6.10;95.50;;;7.62;67.40;100750.53;3082090;46;20438;-68
2024/01/14 03:44:03;;;;;;;8.43;2.30;;;6.10;95.70;;;7.64;67.56;100756.44;3082757;46;20441;-67
2024/01/14 03:46:32;;;;;;;6.80;2.10;;;6.00;95.80;;;7.68;67.54;100757.75;3082804;46;20445;-68
2024/01/14 03:49:00;;;;;;;11.83;2.67;;;6.00;95.90;;;7.70;67.47;100755.81;3082014;46;20490;-67
2024/01/14 03:51:29;;;;;;;6.87;2.03;;;6.00;96.00;;;7.72;67.45;100751.25;3082843;46;20431;-67
2024/01/14 03:53:57;;;;;;;6.57;2.37;;;6.00;96.20;;;7.73;67.67;100750.25;3082736;46;20442;-68
2024/01/14 03:56:26;;;;;;;7.37;2.07;;;6.10;96.30;;;7.75;67.46;100756.16;3082094;46;20439;-68
2024/01/14 03:58:54;;;;;;;8.63;2.10;;;6.10;96.20;;;7.75;67.65;100756.16;3082277;46;20468;-68
2024/01/14 04:01:22;;;;;;;14.80;2.50;;;6.10;96.20;;;7.76;67.45;100755.19;3082455;46;20427;-68
2024/01/14 04:03:51;;;;;;;5.70;2.30;;;6.10;96.10;;;7.76;67.37;100759.59;3082833;46;20996;-68
2024/01/14 04:06:20;;;;;;;7.67;1.67;;;6.10;96.00;;;7.75;67.25;100757.97;3082512;46;20424;-68
2024/01/14 04:08:49;;;;;;;4.50;1.93;;;6.10;95.90;;;7.74;67.50;100751.91;3082288;46;20469;-68
2024/01/14 04:11:18;;;;;;;5.87;1.77;;;6.10;95.80;;;7.73;67.26;100754.66;3082536;46;20461;-68
2024/01/14 04:13:46;;;;;;;9.97;2.03;;;6.10;95.70;;;7.73;67.14;100754.66;3082556;46;20502;-68
2024/01/14 04:16:14;;;;;;;11.97;2.90;;;6.10;95.70;;;7.70;67.35;100745.31;3082430;46;21051;-68
2024/01/14 04:18:43;;;;;;;6.57;1.97;;;6.10;95.60;;;7.69;67.22;100740.25;3081893;46;20440;-68
2024/01/14 04:21:24;;;;;;;8.27;1.40;;;6.10;95.60;;;7.66;66.95;100744.00;3082691;46;20545;-68
2024/01/14 04:23:52;;;;;;;8.23;1.67;;;6.10;95.90;;;7.68;67.25;100747.28;3082294;46;20457;-67
2024/01/14 04:26:22;;;;;;;11.87;2.30;;;6.00;95.50;;;7.70;67.17;100752.38;3082153;46;21019;-67
2024/01/14 04:28:51;;;;;;;14.70;2.50;;;6.00;95.50;;;7.71;67.00;100754.84;3082083;46;20502;-65
2024/01/14 04:31:20;;;;;;;10.00;2.40;;;6.00;95.60;;;7.72;66.94;100753.88;3082162;46;20492;-69
2024/01/14 04:33:49;;;;;;;8.50;2.53;;;6.00;95.60;;;7.73;66.82;100739.78;3082515;46;20467;-68
2024/01/14 04:36:18;;;;;;;9.07;2.27;;;6.00;95.60;;;7.74;67.11;100741.44;3082154;46;20454;-68
2024/01/14 04:38:46;;;;;;;11.47;2.20;;;6.00;95.60;;;7.75;67.03;100740.44;3081781;46;20588;-68
2024/01/14 04:41:15;;;;;;;7.13;2.17;;;6.10;95.70;;;7.77;66.72;100741.13;3082109;46;20465;-67
2024/01/14 04:43:43;;;;;;;10.77;2.60;;;6.00;95.60;;;7.76;66.85;100738.66;3082149;46;20434;-68
2024/01/14 04:46:12;;;;;;;9.37;1.80;;;6.10;95.60;;;7.74;66.81;100730.97;3082132;46;20466;-72
2024/01/14 04:48:40;;;;;;;8.40;2.03;;;6.10;95.60;;;7.73;66.54;100737.16;3081305;46;20439;-67
2024/01/14 04:51:10;;;;;;;7.23;1.53;;;6.10;95.60;;;7.73;66.64;100733.72;3082140;46;20451;-69
2024/01/14 04:53:38;;;;;;;10.53;2.27;;;6.10;95.50;;;7.72;66.74;100732.91;3081988;46;20437;-68
2024/01/14 04:56:08;;;;;;;9.30;2.77;;;6.00;95.50;;;7.71;66.81;100728.66;3082130;46;20577;-67
2024/01/14 04:58:38;;;;;;;11.37;2.50;;;6.00;95.50;;;7.73;66.81;100724.06;3081689;46;21058;-67
2024/01/14 05:01:07;;;;;;;5.30;2.10;;;6.00;95.50;;;7.76;66.57;100739.47;3082130;46;20514;-68
2024/01/14 05:03:35;;;;;;;8.30;2.20;;;6.00;95.40;;;7.77;66.43;100735.06;3082079;46;20448;-67
2024/01/14 05:06:05;;;;;;;6.10;2.00;;;6.10;95.30;;;7.77;66.21;100729.81;3082168;46;20435;-67
2024/01/14 05:08:34;;;;;;;6.73;1.93;;;6.10;95.20;;;7.73;66.29;100721.44;3081424;46;20503;-69
2024/01/14 05:11:02;;;;;;;8.67;2.20;;;6.00;95.10;;;7.65;66.13;100716.19;3081907;46;21012;-68
2024/01/14 05:13:30;;;;;;;12.20;1.90;;;6.00;95.00;;;7.56;66.05;100711.84;3082128;46;20427;-68
2024/01/14 05:15:59;;;;;;;6.67;2.23;;;6.00;95.00;;;7.48;66.35;100706.59;3081267;46;20432;-68
2024/01/14 05:18:28;;;;;;;6.67;2.60;;;5.90;95.00;;;7.42;66.27;100704.56;3081359;46;21023;-67
2024/01/14 05:20:57;;;;;;;6.47;1.93;;;5.90;95.10;;;7.38;66.54;100695.41;3081636;46;20503;-67
2024/01/14 05:23:25;;;;;;;8.63;2.20;;;5.90;95.30;;;7.36;66.74;100699.97;3081668;46;20454;-68
2024/01/14 05:25:53;;;;;;;8.57;3.07;;;5.80;95.30;;;7.32;66.77;100706.50;3081587;46;20428;-67
2024/01/14 05:28:22;;;;;;;6.93;2.20;;;5.80;95.30;;;7.26;66.67;100696.63;3080938;46;20446;-68
2024/01/14 05:30:50;;;;;;;5.90;2.37;;;5.70;95.40;;;7.20;66.96;100692.03;3081762;46;20434;-66
2024/01/14 05:33:19;;;;;;;10.93;2.50;;;5.70;95.40;;;7.16;66.83;100688.06;3081417;46;20521;-66
2024/01/14 05:35:47;;;;;;;11.57;3.23;;;5.60;95.40;;;7.12;66.97;100686.72;3082037;46;21086;-68
2024/01/14 05:38:16;;;;;;;6.87;2.40;;;5.60;95.50;;;7.09;67.22;100694.88;3081774;46;21165;-67
2024/01/14 05:40:45;;;;;;;10.83;2.53;;;5.60;95.50;;;7.06;67.13;100687.34;3081891;46;20434;-67
2024/01/14 05:43:13;;;;;;;10.70;2.67;;;5.60;95.60;;;7.06;67.36;100687.34;3081792;46;21000;-67
2024/01/14 05:45:42;;;;;;;11.10;2.30;;;5.50;95.70;;;7.07;67.44;100683.75;3081454;46;20434;-70
2024/01/14 05:48:10;;;;;;;8.80;2.60;;;5.50;95.80;;;7.12;67.48;100686.72;3080972;46;20494;-68
2024/01/14 05:50:39;;;;;;;13.20;3.03;;;5.50;95.90;;;7.15;67.55;100681.19;3081148;46;20556;-67
2024/01/14 05:53:07;;;;;;;8.40;2.40;;;5.50;95.90;;;7.19;67.25;100672.06;3081449;46;20435;-68
2024/01/14 05:55:35;;;;;;;9.83;2.37;;;5.50;96.20;;;7.19;67.39;100674.69;3081628;46;20500;-67
2024/01/14 05:58:04;;;;;;;5.33;2.13;;;5.50;95.80;;;7.16;66.95;100674.97;3080994;46;20522;-67
2024/01/14 06:00:32;;;;;;;11.63;2.53;;;5.50;95.70;;;7.11;67.33;100675.44;3081262;46;21111;-68
2024/01/14 06:03:01;;;;;;;12.03;2.87;;;5.50;95.60;;;7.07;67.38;100668.06;3081439;46;20493;-68
2024/01/14 06:05:29;;;;;;;6.67;2.10;;;5.50;95.50;;;7.04;67.28;100673.59;3081258;46;20450;-68
2024/01/14 06:07:58;;;;;;;11.33;2.77;;;5.50;95.50;;;7.00;67.22;100678.31;3080824;46;20457;-67
2024/01/14 06:10:26;;;;;;;10.27;1.73;;;5.50;95.60;;;7.01;67.49;100671.28;3081245;46;21091;-68
2024/01/14 06:12:54;;;;;;;7.17;2.57;;;5.50;95.60;;;6.98;67.43;100671.59;3080997;46;20971;-67
2024/01/14 06:15:23;;;;;;;5.77;2.20;;;5.50;95.50;;;6.93;67.36;100671.22;3081241;46;20437;-67
2024/01/14 06:17:52;;;;;;;11.43;2.90;;;5.40;95.40;;;6.89;67.43;100672.50;3080587;46;20512;-67
2024/01/14 06:20:20;;;;;;;11.93;2.47;;;5.40;95.50;;;6.84;67.34;100672.97;3081211;46;20458;-66
2024/01/14 06:22:48;;;;;;;14.90;2.73;;;5.40;95.50;;;6.82;67.37;100669.69;3081421;46;20427;-67
2024/01/14 06:25:17;;;;;;;14.90;2.77;;;5.30;95.40;;;6.76;67.28;100668.50;3081267;46;20455;-67
2024/01/14 06:27:45;;;;;;;15.30;2.93;;;5.30;95.50;;;6.71;67.33;100675.97;3081786;46;20580;-68
2024/01/14 06:30:14;;;;;;;12.87;2.10;;;5.30;95.50;;;6.67;67.26;100661.56;3083308;46;20437;-68
2024/01/14 06:32:43;;;;;;;11.27;2.40;;;5.20;95.40;;;6.60;67.55;100657.91;3083623;46;21011;-66
2024/01/14 06:35:11;;;;;;;14.17;2.50;;;5.20;95.50;;;6.57;67.54;100649.53;3083525;46;20438;-67
2024/01/14 06:37:43;;;;;;;9.73;2.53;;;5.10;95.50;;;6.52;67.43;100651.78;3082947;46;20537;-67
2024/01/14 06:40:12;;;;;;;10.50;2.33;;;5.10;95.50;;;6.48;67.59;100655.66;3083732;46;20434;-67
2024/01/14 06:42:50;;;;;;;7.80;1.87;;;5.00;95.50;;;6.42;67.68;100646.63;3083423;46;20556;-67
2024/01/14 06:45:18;;;;;;;9.27;2.27;;;5.00;95.50;;;6.37;67.59;100653.28;3083672;46;20431;-67
2024/01/14 06:47:47;;;;;;;11.83;2.50;;;4.90;95.50;;;6.32;67.72;100653.75;3081967;46;20470;-66
2024/01/14 06:50:15;;;;;;;8.53;2.50;;;4.90;95.60;;;6.29;68.01;100647.97;3082998;46;20462;-67
2024/01/14 06:52:44;;;;;;;10.87;2.67;;;4.80;95.70;;;6.27;67.89;100639.47;3083429;46;20428;-68
2024/01/14 06:55:13;;;;;;;7.13;2.20;;;4.80;95.80;;;6.26;68.16;100646.47;3083406;46;20456;-67
2024/01/14 06:57:42;;;;;;;6.93;2.10;;;4.80;95.90;;;6.23;68.20;100641.56;3082054;46;20464;-67
2024/01/14 07:00:12;;;;;;;13.43;2.63;;;4.70;95.90;;;6.21;68.03;100638.28;3083284;46;20521;-67
2024/01/14 07:02:40;;;;;;;9.10;2.90;;;4.70;95.90;;;6.20;68.07;100636.66;3083442;46;20502;-69
2024/01/14 07:05:10;;;;;;;14.53;2.83;;;4.70;95.90;;;6.20;68.25;100635.81;3083343;46;20434;-67
2024/01/14 07:07:39;;;;;;;16.37;2.70;;;4.70;96.00;;;6.20;68.39;100635.81;3082703;46;20454;-65
2024/01/14 07:10:09;;;;;;;9.33;2.40;;;4.70;96.10;;;6.21;68.23;100642.66;3083017;46;20514;-67
2024/01/14 07:12:37;;;;;;;4.70;2.13;;;4.70;96.10;;;6.21;68.26;100638.28;3083125;46;20454;-67
2024/01/14 07:15:06;;;;;;;6.63;1.60;;;4.70;96.10;;;6.20;68.27;100636.66;3083514;46;20575;-67
2024/01/14 07:17:35;;;;;;;12.27;3.07;;;4.70;96.10;;;6.18;68.30;100635.94;3082649;46;20458;-68
2024/01/14 07:20:22;;;;;;;10.70;2.23;;;4.70;96.10;;;6.16;68.21;100640.50;3083063;46;20428;-67
2024/01/14 07:22:51;;;;;;;10.40;2.33;;;4.60;96.10;;;6.16;68.51;100634.47;3082989;46;20425;-67
2024/01/14 07:25:20;;;;;;;12.33;2.30;;;4.60;96.10;;;6.17;68.26;100641.34;3083064;46;20466;-67
2024/01/14 07:27:48;;;;;;;10.53;2.87;;;4.60;96.20;;;6.18;68.56;100635.94;3082576;46;20475;-67
2024/01/14 07:30:18;;;;;;;10.83;2.47;;;4.60;96.30;;;6.19;68.66;100642.81;3083092;46;20437;-68
2024/01/14 07:32:46;;;;;;;11.10;2.23;;;4.60;96.30;;;6.18;68.75;100641.16;3082802;46;20526;-67
2024/01/14 07:35:15;;;;;;;12.00;2.27;;;4.60;96.40;;;6.17;68.65;100629.09;3083128;46;21125;-68
2024/01/14 07:37:43;;;;;;;8.83;2.27;;;4.60;96.40;;;6.16;68.81;100635.28;3082198;46;20449;-68
2024/01/14 07:40:12;;;;;;;11.13;2.80;;;4.60;96.40;;;6.15;68.85;100638.88;3083056;46;20443;-68
2024/01/14 07:42:40;;;;;;;10.73;2.60;;;4.60;96.40;;;6.15;68.80;100641.50;3082727;46;20438;-67
2024/01/14 07:45:09;;;;;;;8.20;2.20;;;4.60;96.40;;;6.14;68.79;100637.22;3082920;46;20432;-68
2024/01/14 07:47:38;;;;;;;4.83;2.17;;;4.60;96.50;;;6.13;69.03;100638.22;3082301;46;20529;-68
2024/01/14 07:50:07;;;;;;;7.93;2.20;;;4.60;96.50;;;6.14;69.08;100642.44;3082673;46;20433;-67
2024/01/14 07:52:36;;;;;;;11.33;2.53;;;4.60;96.60;;;6.14;69.11;100637.22;3082508;46;21104;-67
2024/01/14 07:55:05;;;;;;;11.80;2.80;;;4.60;96.60;;;6.15;69.14;100646.72;3082999;46;20514;-67
2024/01/14 07:57:34;;;;;;;10.73;2.40;;;4.60;96.60;;;6.20;69.32;100639.25;3082144;46;21034;-68
2024/01/14 08:00:03;;;;;;;14.70;2.70;;;4.60;96.70;;;6.29;69.21;100643.59;3082615;46;20438;-67
2024/01/14 08:02:32;;;;;;;8.23;2.30;;;4.60;96.80;;;6.38;69.40;100644.47;3082439;46;20449;-68
2024/01/14 08:05:00;;;;;;;8.83;2.10;;;4.70;96.90;;;6.45;69.23;100641.09;3082650;46;20427;-67
2024/01/14 08:07:29;;;;;;;11.07;2.90;;;4.70;96.90;;;6.51;69.22;100637.88;3082140;46;21070;-67
2024/01/14 08:09:59;;;;;;;9.63;2.67;;;4.80;97.00;;;6.55;69.04;100636.63;3082287;46;20455;-68
2024/01/14 08:12:27;;;;;;;10.87;2.30;;;4.80;96.90;;;6.62;68.78;100640.28;3082777;46;20432;-68
2024/01/14 08:14:56;;;;;;;6.20;2.27;;;4.90;96.90;;;6.65;68.94;100642.59;3082470;46;20507;-68
2024/01/14 08:17:25;;;;;;;10.47;2.50;;;4.90;96.80;;;6.68;68.85;100637.03;3082135;46;21107;-67
2024/01/14 08:19:54;;;;;;;13.33;2.77;;;5.00;96.70;;;6.69;68.48;100641.31;3082283;46;20438;-67
2024/01/14 08:22:23;;;;;;;14.03;2.53;;;5.00;96.60;;;6.67;68.51;100640.66;3082408;46;21055;-68
2024/01/14 08:24:51;;;;;;;8.47;2.30;;;5.10;96.50;;;6.65;68.56;100632.13;3082255;46;20455;-67
2024/01/14 08:27:20;;;;;;;8.77;2.23;;;5.10;96.40;;;6.63;68.58;100636.66;3082200;46;20439;-67
2024/01/14 08:29:48;;;;;;;7.50;1.93;;;5.00;96.40;;;6.64;68.75;100640.13;3082408;46;20538;-67
2024/01/14 08:32:16;;;;;;;11.27;2.97;;;5.10;96.40;;;6.69;68.63;100635.25;3082075;46;20430;-67
2024/01/14 08:34:45;;;;;;;8.90;2.40;;;5.00;96.40;;;6.79;68.75;100639.44;3082187;46;20439;-67
2024/01/14 08:37:13;;;;;;;11.70;3.17;;;5.10;96.50;;;6.93;68.73;100629.38;3082142;46;20439;-67
2024/01/14 08:39:42;;;;;;;9.67;2.37;;;5.10;96.60;;;7.03;68.53;100624.88;3082001;46;20458;-68
2024/01/14 08:42:10;;;;;;;9.00;2.17;;;5.20;96.70;;;7.10;68.12;100625.88;3082260;46;21022;-69
2024/01/14 08:44:39;;;;;;;9.43;2.00;;;5.30;96.60;;;7.13;68.21;100625.59;3082185;46;20439;-68
2024/01/14 08:47:08;;;;;;;4.67;1.87;;;5.30;96.50;;;7.13;67.85;100622.97;3081943;46;20450;-69
2024/01/14 08:49:36;;;;;;;11.40;3.03;;;5.40;96.40;;;7.16;67.97;100625.25;3081053;46;20429;-68
2024/01/14 08:52:07;;;;;;;9.97;2.10;;;5.40;96.40;;;7.18;67.82;100623.31;3081239;46;20582;-67
2024/01/14 08:54:36;;;;;;;11.00;2.30;;;5.50;96.30;;;7.15;67.63;100618.41;3082016;46;20438;-66
2024/01/14 08:57:04;;;;;;;7.83;2.17;;;5.50;96.20;;;7.15;67.99;100628.88;3081745;46;20457;-68
2024/01/14 08:59:34;;;;;;;9.03;2.27;;;5.50;96.20;;;7.16;68.05;100626.06;3081660;46;20431;-68
2024/01/14 09:02:03;;;;;;;12.00;2.50;;;5.50;96.30;;;7.22;68.33;100630.72;3081910;46;20621;-68
2024/01/14 09:04:31;;;;;;;14.33;2.77;;;5.50;96.30;;;7.30;67.89;100622.06;3081619;46;20445;-67
2024/01/14 09:07:00;;;;;;;9.60;2.40;;;5.60;96.30;;;7.34;67.95;100619.00;3081503;46;20434;-68
2024/01/14 09:09:28;;;;;;;10.10;2.20;;;5.60;96.20;;;7.38;67.96;100619.50;3081588;46;21066;-68
2024/01/14 09:11:56;;;;;;;11.20;2.67;;;5.60;96.20;;;7.38;67.58;100624.72;3081784;46;21003;-68
2024/01/14 09:14:25;;;;;;;9.37;2.30;;;5.70;96.10;;;7.38;67.76;100614.25;3081674;46;20572;-68
2024/01/14 09:16:53;;;;;;;7.27;2.57;;;5.70;96.00;;;7.38;67.58;100612.47;3081460;46;20516;-68
2024/01/14 09:19:22;;;;;;;15.43;2.53;;;5.70;96.00;;;7.39;67.69;100618.53;3081560;46;21003;-68
2024/01/14 09:21:54;;;;;;;10.53;2.63;;;5.70;96.00;;;7.39;67.48;100615.91;3081955;46;20563;-68
2024/01/14 09:24:22;;;;;;;9.63;2.20;;;5.70;95.90;;;7.41;67.53;100616.56;3082107;46;20431;-67
2024/01/14 09:26:51;;;;;;;10.37;2.13;;;5.80;95.90;;;7.43;67.55;100614.59;3081187;46;20576;-68
2024/01/14 09:29:19;;;;;;;10.43;2.70;;;5.80;95.90;;;7.46;67.29;100611.69;3081720;46;21046;-67
2024/01/14 09:31:47;;;;;;;9.90;2.40;;;5.80;95.90;;;7.50;67.43;100615.63;3081614;46;20987;-68
2024/01/14 09:34:16;;;;;;;9.37;2.40;;;5.80;95.90;;;7.55;67.63;100626.44;3081513;46;21041;-67
2024/01/14 09:36:45;;;;;;;11.27;2.80;;;5.80;95.90;;;7.64;67.60;100617.63;3081265;46;20470;-67
2024/01/14 09:39:13;;;;;;;7.37;2.73;;;5.90;95.90;;;7.69;67.19;100612.75;3081645;46;20427;-68
2024/01/14 09:42:17;;;;;;;9.00;2.53;;;5.90;95.80;;;7.73;66.77;100608.81;3081360;46;20918;-68
2024/01/14 09:44:47;;;;;;;12.30;3.03;;;5.90;95.60;;;7.79;66.93;100605.56;3081328;46;20439;-67
2024/01/14 09:47:17;;;;;;;14.07;3.13;;;6.00;95.70;;;7.84;66.64;100613.78;3080964;46;20443;-68
2024/01/14 09:49:45;;;;;;;14.90;3.73;;;6.00;95.60;;;7.89;66.73;100605.44;3081220;46;20490;-68
2024/01/14 09:52:15;;;;;;;9.93;2.90;;;6.10;95.70;;;7.94;66.42;100611.81;3081429;46;21027;-69
2024/01/14 09:54:43;;;;;;;12.47;2.87;;;6.10;95.60;;;7.99;66.30;100604.28;3081463;46;20431;-68
2024/01/14 09:57:18;;;;;;;10.83;2.17;;;6.10;95.40;;;8.02;66.26;100603.97;3081043;46;20439;-68
2024/01/14 09:59:50;;;;;;;6.73;2.77;;;6.20;95.50;;;7.99;65.78;100604.28;3081364;46;20457;-67
2024/01/14 10:02:19;;;;;;;6.57;2.43;;;6.20;95.30;;;7.99;66.13;100604.28;3080927;46;20423;-68
2024/01/14 10:04:48;;;;;;;10.03;2.50;;;6.20;95.30;;;8.03;66.22;100605.59;3080766;46;20456;-68
2024/01/14 10:07:18;;;;;;;10.90;2.73;;;6.20;95.30;;;8.14;66.06;100591.38;3081019;46;20439;-68
2024/01/14 10:09:46;;;;;;;9.83;2.30;;;6.30;95.60;;;8.22;65.89;100603.69;3081110;46;20435;-68
2024/01/14 10:12:15;;;;;;;8.97;2.00;;;6.30;95.30;;;8.31;65.89;100584.38;3081057;46;20426;-68
2024/01/14 10:14:44;;;;;;;7.93;2.17;;;6.40;95.30;;;8.40;65.34;100588.63;3081422;46;20524;-68
2024/01/14 10:17:16;;;;;;;13.03;2.37;;;6.50;95.30;;;8.44;64.88;100577.63;3080511;46;20478;-68
2024/01/14 10:19:53;;;;;;;7.87;3.00;;;6.50;95.10;;;8.57;64.98;100579.78;3081041;46;20427;-67
2024/01/14 10:22:21;;;;;;;8.63;2.67;;;6.60;95.00;;;8.73;64.95;100577.13;3081135;46;20428;-68
2024/01/14 10:24:52;;;;;;;9.27;1.77;;;6.70;95.50;;;8.92;64.71;100566.25;3081373;46;20995;-68
2024/01/14 10:27:26;;;;;;;8.40;2.10;;;6.80;95.00;;;9.02;64.10;100566.91;3080517;46;20539;-68
2024/01/14 10:30:10;;;;;;;8.40;2.73;;;6.90;95.20;;;9.01;63.70;100560.00;3080879;46;20445;-68